Coqueiro Seco, Brazil
Current Conditions -  °F | °C
As of 3:00 PM on Friday 24 Oct 2014 (Local Time) from SBMO Reporting Station
Scattered Clouds Scattered Clouds  
Wind Chill: 81°   Ceiling: Unl
Heat Index: 83°   Visibility: 6mi
Dew Point: 66°   Wind: 12mph
Humidity: 61%   Direction: 110°ESE
Pressure: 29.91"   Gusts: NA
Location:  9.64°S, 35.8°W
Report Text: SBMO 241800Z 11010KT 9999 SCT020 27/19 Q1013
Loading
Personal Weather Stations






























Interactive Weather Map
Tropical Storm Tracking
New forecast layout! Learn more

10-Day Weather Forecast

Advertisements
Track Severe Weather on mobile